Time;durP1;ratioP1;P1;durP2;ratioP2;P2;SDS_P1;SDS_P2;PMS_P1;PMS_P2;Temp;Humidity;BMP_temperature;BMP_pressure;BME280_temperature;BME280_humidity;BME280_pressure;Samples;Min_cycle;Max_cycle;Signal;HPM_P1;HPM_P2
2022/10/07 00:01:54;;;;;;;;;;;3.20;99.90;;;;;;5084021;27;1672;-53
2022/10/07 00:04:32;;;;;;;;;;;3.20;99.90;;;;;;5089280;27;1580;-54
2022/10/07 00:07:11;;;;;;;;;;;3.10;99.90;;;;;;5107868;27;1212;-56
2022/10/07 00:09:49;;;;;;;;;;;3.10;99.90;;;;;;5067280;27;1210;-52
2022/10/07 00:12:27;;;;;;;;;;;3.00;99.90;;;;;;5093173;27;1374;-53
2022/10/07 00:15:06;;;;;;;;;;;2.90;99.90;;;;;;5109172;27;1293;-54
2022/10/07 00:17:45;;;;;;;;;;;2.80;99.90;;;;;;5108494;27;1385;-53
2022/10/07 00:20:24;;;;;;;;;;;2.80;99.90;;;;;;5088139;27;1297;-52
2022/10/07 00:23:02;;;;;;;;;;;2.80;99.90;;;;;;5104175;27;1967;-54
2022/10/07 00:25:40;;;;;;;;;;;2.80;99.90;;;;;;5105472;27;1622;-54
2022/10/07 00:28:18;;;;;;;;;;;2.70;99.90;;;;;;5106569;27;1241;-53
2022/10/07 00:31:00;;;;;;;;;;;2.70;99.90;;;;;;5100625;27;2024;-54
2022/10/07 00:33:40;;;;;;;;;;;2.60;99.90;;;;;;5108420;27;1463;-54
2022/10/07 00:36:22;;;;;;;;;;;2.60;99.90;;;;;;5108160;27;1400;-53
2022/10/07 00:39:01;;;;;;;;;;;2.60;99.90;;;;;;5067966;27;1230;-53
2022/10/07 00:41:42;;;;;;;;;;;2.60;99.90;;;;;;5100341;27;1361;-53
2022/10/07 00:44:35;;;;;;;;;;;2.60;99.90;;;;;;5109603;27;1193;-53
2022/10/07 00:47:18;;;;;;;;;;;2.60;99.90;;;;;;5082319;27;1576;-54
2022/10/07 00:50:00;;;;;;;;;;;2.60;99.90;;;;;;5065018;27;1890;-54
2022/10/07 00:52:40;;;;;;;;;;;2.60;99.90;;;;;;5090472;27;1300;-52
2022/10/07 00:55:20;;;;;;;;;;;2.60;99.90;;;;;;5108655;27;1397;-54
2022/10/07 00:58:01;;;;;;;;;;;2.70;99.90;;;;;;5088426;27;1293;-55
2022/10/07 01:00:41;;;;;;;;;;;2.60;99.90;;;;;;5107302;27;1317;-54
2022/10/07 01:03:20;;;;;;;;;;;2.60;99.90;;;;;;5088400;27;1226;-54
2022/10/07 01:05:58;;;;;;;;;;;2.60;99.90;;;;;;5109077;27;1508;-52
2022/10/07 01:08:36;;;;;;;;;;;2.70;99.90;;;;;;5088314;27;1537;-56
2022/10/07 01:11:18;;;;;;;;;;;2.60;99.90;;;;;;5097014;27;1772;-54
2022/10/07 01:14:03;;;;;;;;;;;2.60;99.90;;;;;;5099289;27;1457;-54
2022/10/07 01:16:46;;;;;;;;;;;2.50;99.90;;;;;;5107078;27;1311;-54
2022/10/07 01:19:37;;;;;;;;;;;2.50;99.90;;;;;;5107712;27;1269;-53
2022/10/07 01:22:25;;;;;;;;;;;2.40;99.90;;;;;;5073855;27;1313;-53
2022/10/07 01:25:12;;;;;;;;;;;2.40;99.90;;;;;;5087862;27;1345;-54
2022/10/07 01:27:53;;;;;;;;;;;2.40;99.90;;;;;;5127019;27;1244;-54
2022/10/07 01:30:34;;;;;;;;;;;2.40;99.90;;;;;;5102628;27;1558;-53
2022/10/07 01:33:16;;;;;;;;;;;2.30;99.90;;;;;;5107744;27;1757;-54
2022/10/07 01:35:56;;;;;;;;;;;2.40;99.90;;;;;;5107553;27;1463;-53
2022/10/07 01:38:35;;;;;;;;;;;2.40;99.90;;;;;;5107718;27;1291;-55
2022/10/07 01:41:16;;;;;;;;;;;2.30;99.90;;;;;;5082582;27;1387;-53
2022/10/07 01:43:57;;;;;;;;;;;2.30;99.90;;;;;;5108399;27;1313;-53
2022/10/07 01:46:37;;;;;;;;;;;2.30;99.90;;;;;;5108343;27;1731;-54
2022/10/07 01:49:15;;;;;;;;;;;2.40;99.90;;;;;;5107753;27;1442;-54
2022/10/07 01:52:02;;;;;;;;;;;2.30;99.90;;;;;;5098191;27;1469;-54
2022/10/07 01:54:51;;;;;;;;;;;2.40;99.90;;;;;;5109088;27;1253;-54
2022/10/07 01:57:36;;;;;;;;;;;2.30;99.90;;;;;;5087625;27;1388;-52
2022/10/07 02:00:16;;;;;;;;;;;2.30;99.90;;;;;;5064929;27;1690;-53
2022/10/07 02:03:14;;;;;;;;;;;2.30;99.90;;;;;;5108332;27;1612;-54
2022/10/07 02:05:55;;;;;;;;;;;2.30;99.90;;;;;;5085422;27;1565;-55
2022/10/07 02:08:37;;;;;;;;;;;2.20;99.90;;;;;;5108062;27;1225;-56
2022/10/07 02:11:16;;;;;;;;;;;2.20;99.90;;;;;;5107669;27;1551;-53
2022/10/07 02:14:01;;;;;;;;;;;2.20;99.90;;;;;;5111984;27;1553;-53
2022/10/07 02:16:47;;;;;;;;;;;2.10;99.90;;;;;;5109507;27;1269;-55
2022/10/07 02:19:42;;;;;;;;;;;2.10;99.90;;;;;;5104150;27;1622;-53
2022/10/07 02:22:25;;;;;;;;;;;2.10;99.90;;;;;;5105092;27;1729;-54
2022/10/07 02:25:04;;;;;;;;;;;2.10;99.90;;;;;;5088055;27;1382;-56
2022/10/07 02:27:44;;;;;;;;;;;2.10;99.90;;;;;;5107078;27;1637;-53
2022/10/07 02:30:23;;;;;;;;;;;2.10;99.90;;;;;;5102354;27;1687;-54
2022/10/07 02:33:04;;;;;;;;;;;2.10;99.90;;;;;;5087774;27;1390;-54
2022/10/07 02:35:45;;;;;;;;;;;2.20;99.90;;;;;;5107413;27;1250;-55
2022/10/07 02:38:25;;;;;;;;;;;2.10;99.90;;;;;;5109585;27;1415;-55
2022/10/07 02:41:05;;;;;;;;;;;2.10;99.90;;;;;;5104541;27;1648;-54
2022/10/07 02:43:46;;;;;;;;;;;2.10;99.90;;;;;;5089656;27;1391;-53
2022/10/07 02:46:26;;;;;;;;;;;2.10;99.90;;;;;;5109068;27;1300;-54
2022/10/07 02:49:06;;;;;;;;;;;2.10;99.90;;;;;;5108941;27;1397;-56
2022/10/07 02:51:47;;;;;;;;;;;2.10;99.90;;;;;;5109985;27;1401;-55
2022/10/07 02:54:30;;;;;;;;;;;2.10;99.90;;;;;;5110586;27;1577;-53
2022/10/07 02:57:10;;;;;;;;;;;2.10;99.90;;;;;;5105877;27;1640;-55
2022/10/07 02:59:52;;;;;;;;;;;2.10;99.90;;;;;;5108982;27;1598;-55
2022/10/07 03:02:35;;;;;;;;;;;2.10;99.90;;;;;;5103280;27;1617;-55
2022/10/07 03:05:18;;;;;;;;;;;2.10;99.90;;;;;;5109208;27;1344;-57
2022/10/07 03:07:58;;;;;;;;;;;2.00;99.90;;;;;;5107576;27;1386;-55
2022/10/07 03:10:37;;;;;;;;;;;2.00;99.90;;;;;;5083243;27;1644;-55
2022/10/07 03:13:18;;;;;;;;;;;2.00;99.90;;;;;;5066204;27;1304;-55
2022/10/07 03:16:04;;;;;;;;;;;2.00;99.90;;;;;;5106637;27;1235;-55
2022/10/07 03:18:42;;;;;;;;;;;2.00;99.90;;;;;;5107929;27;1518;-53
2022/10/07 03:21:39;;;;;;;;;;;2.00;99.90;;;;;;5100979;27;1343;-56
2022/10/07 03:24:18;;;;;;;;;;;1.90;99.90;;;;;;5109425;27;1386;-54
2022/10/07 03:26:59;;;;;;;;;;;1.90;99.90;;;;;;5109876;27;1643;-54
2022/10/07 03:29:39;;;;;;;;;;;1.90;99.90;;;;;;5108525;27;1225;-56
2022/10/07 03:32:19;;;;;;;;;;;1.90;99.90;;;;;;5093728;27;1389;-55
2022/10/07 03:34:57;;;;;;;;;;;1.90;99.90;;;;;;5108685;27;1495;-54
2022/10/07 03:37:37;;;;;;;;;;;1.90;99.90;;;;;;5087651;27;1475;-56
2022/10/07 03:40:17;;;;;;;;;;;2.00;99.90;;;;;;5103467;27;1745;-55
2022/10/07 03:42:57;;;;;;;;;;;1.90;99.90;;;;;;5045792;27;1821;-55
2022/10/07 03:45:37;;;;;;;;;;;1.90;99.90;;;;;;5107010;27;1822;-55
2022/10/07 03:48:15;;;;;;;;;;;1.90;99.90;;;;;;5087955;27;1313;-57
2022/10/07 03:50:54;;;;;;;;;;;1.90;99.90;;;;;;5108309;27;1312;-54
2022/10/07 03:53:37;;;;;;;;;;;1.80;99.90;;;;;;5109340;27;1754;-55
2022/10/07 03:56:16;;;;;;;;;;;1.80;99.90;;;;;;5108402;27;1433;-54
2022/10/07 03:58:56;;;;;;;;;;;1.80;99.90;;;;;;5093444;27;1687;-55
2022/10/07 04:01:36;;;;;;;;;;;1.70;99.90;;;;;;5092360;27;1290;-55
2022/10/07 04:04:15;;;;;;;;;;;1.70;99.90;;;;;;5109746;27;1299;-54
2022/10/07 04:06:55;;;;;;;;;;;1.60;99.90;;;;;;5106329;27;1720;-56
2022/10/07 04:09:35;;;;;;;;;;;1.60;99.90;;;;;;5104343;27;1434;-54
2022/10/07 04:12:13;;;;;;;;;;;1.60;99.90;;;;;;5092711;27;2492;-56
2022/10/07 04:14:53;;;;;;;;;;;1.60;99.90;;;;;;5059050;27;1541;-55
2022/10/07 04:17:31;;;;;;;;;;;1.60;99.90;;;;;;5107314;27;1178;-55
2022/10/07 04:20:10;;;;;;;;;;;1.60;99.90;;;;;;5107453;27;1609;-54
2022/10/07 04:22:49;;;;;;;;;;;1.70;99.90;;;;;;5109050;27;1436;-55
2022/10/07 04:25:37;;;;;;;;;;;1.70;99.90;;;;;;5088491;27;1411;-55
2022/10/07 04:28:25;;;;;;;;;;;1.60;99.90;;;;;;5105630;27;1576;-55
2022/10/07 04:31:11;;;;;;;;;;;1.60;99.90;;;;;;5067299;27;1662;-54
2022/10/07 04:33:56;;;;;;;;;;;1.60;99.90;;;;;;5106318;27;1396;-56
2022/10/07 04:36:39;;;;;;;;;;;1.60;99.90;;;;;;5107164;27;1474;-55
2022/10/07 04:39:24;;;;;;;;;;;1.70;99.90;;;;;;5107644;27;1288;-56
2022/10/07 04:43:17;;;;;;;;;;;1.70;99.90;;;;;;5074855;27;1355;-55
2022/10/07 04:45:08;;;;;;;;;;;1.70;99.90;;;;;;5107920;27;1394;-55
2022/10/07 04:47:49;;;;;;;;;;;1.70;99.90;;;;;;5107389;27;1284;-54
2022/10/07 04:50:27;;;;;;;;;;;1.70;99.90;;;;;;5103147;27;1729;-55
2022/10/07 04:53:13;;;;;;;;;;;1.70;99.90;;;;;;5106778;27;1289;-55
2022/10/07 04:55:51;;;;;;;;;;;1.70;99.90;;;;;;5065786;27;1366;-54
2022/10/07 04:58:32;;;;;;;;;;;1.70;99.90;;;;;;5107600;27;1628;-55
2022/10/07 05:01:11;;;;;;;;;;;1.80;99.90;;;;;;5102508;27;1535;-57
2022/10/07 05:03:54;;;;;;;;;;;1.80;99.90;;;;;;5101287;27;2114;-55
2022/10/07 05:06:32;;;;;;;;;;;1.80;99.90;;;;;;5090149;27;1648;-54
2022/10/07 05:09:11;;;;;;;;;;;1.70;99.90;;;;;;5086531;27;1301;-54
2022/10/07 05:11:54;;;;;;;;;;;1.60;99.90;;;;;;5056316;27;1577;-56
2022/10/07 05:14:33;;;;;;;;;;;1.60;99.90;;;;;;5089560;27;1644;-54
2022/10/07 05:17:13;;;;;;;;;;;1.70;99.90;;;;;;5087974;27;1419;-55
2022/10/07 05:19:53;;;;;;;;;;;1.60;99.90;;;;;;5108772;27;1351;-54
2022/10/07 05:22:33;;;;;;;;;;;1.70;99.90;;;;;;5048447;27;1720;-55
2022/10/07 05:25:11;;;;;;;;;;;1.70;99.90;;;;;;5107328;27;1476;-55
2022/10/07 05:27:54;;;;;;;;;;;1.80;99.90;;;;;;5065029;27;1220;-56
2022/10/07 05:30:32;;;;;;;;;;;1.80;99.90;;;;;;5103225;27;1561;-55
2022/10/07 05:33:12;;;;;;;;;;;1.90;99.90;;;;;;5101110;27;1345;-54
2022/10/07 05:35:52;;;;;;;;;;;2.00;99.90;;;;;;5086749;27;1304;-54
2022/10/07 05:38:30;;;;;;;;;;;2.10;99.90;;;;;;5107735;27;1444;-56
2022/10/07 05:41:11;;;;;;;;;;;2.20;99.90;;;;;;5103063;27;1321;-55
2022/10/07 05:43:51;;;;;;;;;;;2.30;99.90;;;;;;5068624;27;1749;-55
2022/10/07 05:46:30;;;;;;;;;;;2.40;99.90;;;;;;5108107;27;1657;-55
2022/10/07 05:49:10;;;;;;;;;;;2.50;99.90;;;;;;5106644;27;1487;-54
2022/10/07 05:51:50;;;;;;;;;;;2.60;99.90;;;;;;5096446;27;1301;-56
2022/10/07 05:54:29;;;;;;;;;;;2.70;99.90;;;;;;5066947;27;1446;-56
2022/10/07 05:57:09;;;;;;;;;;;2.80;99.90;;;;;;5108474;27;1211;-54
2022/10/07 05:59:49;;;;;;;;;;;2.90;99.90;;;;;;5088364;27;1308;-54
2022/10/07 06:02:29;;;;;;;;;;;3.10;99.90;;;;;;5109082;27;1401;-56
2022/10/07 06:05:08;;;;;;;;;;;3.20;99.90;;;;;;5109334;27;1303;-54
2022/10/07 06:07:48;;;;;;;;;;;3.30;99.90;;;;;;5108845;27;1284;-54
2022/10/07 06:13:25;;;;;;;;;;;3.50;99.90;;;;;;5109880;27;1463;-54
2022/10/07 06:16:05;;;;;;;;;;;3.50;99.90;;;;;;5109631;27;1971;-53
2022/10/07 06:18:44;;;;;;;;;;;3.60;99.90;;;;;;5109406;27;1316;-54
2022/10/07 06:21:26;;;;;;;;;;;3.60;99.90;;;;;;5085458;27;2096;-54
2022/10/07 06:24:07;;;;;;;;;;;3.70;99.90;;;;;;5096120;27;1624;-54
2022/10/07 06:26:54;;;;;;;;;;;3.80;99.90;;;;;;5087790;27;1702;-54
2022/10/07 06:29:33;;;;;;;;;;;4.00;99.90;;;;;;5107758;27;1620;-53
2022/10/07 06:32:12;;;;;;;;;;;4.20;99.90;;;;;;5094593;27;1394;-56
2022/10/07 06:34:52;;;;;;;;;;;4.40;99.90;;;;;;5088294;27;1293;-56
2022/10/07 06:37:32;;;;;;;;;;;4.60;99.90;;;;;;5108646;27;1682;-54
2022/10/07 06:40:12;;;;;;;;;;;4.80;99.90;;;;;;5104210;27;1717;-54
2022/10/07 06:42:52;;;;;;;;;;;5.00;99.90;;;;;;5087393;27;1751;-54
2022/10/07 06:45:35;;;;;;;;;;;5.20;99.90;;;;;;5107505;27;1216;-54
2022/10/07 06:48:14;;;;;;;;;;;5.30;99.90;;;;;;5088717;27;1207;-54
2022/10/07 06:50:53;;;;;;;;;;;5.50;99.90;;;;;;5085928;27;1375;-54
2022/10/07 06:53:34;;;;;;;;;;;5.60;99.90;;;;;;5088538;27;1330;-54
2022/10/07 06:56:13;;;;;;;;;;;5.80;99.90;;;;;;5108712;27;1317;-53
2022/10/07 06:58:54;;;;;;;;;;;5.90;99.90;;;;;;5075576;27;1181;-54
2022/10/07 07:01:42;;;;;;;;;;;6.00;99.90;;;;;;5074866;27;2045;-54
2022/10/07 07:04:20;;;;;;;;;;;6.00;99.90;;;;;;5068644;27;1382;-54
2022/10/07 07:06:58;;;;;;;;;;;6.20;99.90;;;;;;5108916;27;1217;-54
2022/10/07 07:09:36;;;;;;;;;;;6.20;99.90;;;;;;5108886;27;1341;-54
2022/10/07 07:12:16;;;;;;;;;;;6.30;99.90;;;;;;5091101;27;1801;-54
2022/10/07 07:14:54;;;;;;;;;;;6.40;99.90;;;;;;5088246;27;1390;-54
2022/10/07 07:17:33;;;;;;;;;;;6.60;99.90;;;;;;5108619;27;1556;-54
2022/10/07 07:20:12;;;;;;;;;;;6.70;99.90;;;;;;5084172;27;1721;-54
2022/10/07 07:22:51;;;;;;;;;;;6.70;99.90;;;;;;5089410;27;1374;-56
2022/10/07 07:25:30;;;;;;;;;;;6.70;99.90;;;;;;5107656;27;1410;-54
2022/10/07 07:28:09;;;;;;;;;;;6.80;99.90;;;;;;5107818;27;1264;-54
2022/10/07 07:30:49;;;;;;;;;;;6.90;99.90;;;;;;5106799;27;1403;-54
2022/10/07 07:33:28;;;;;;;;;;;7.00;99.90;;;;;;5068942;27;1293;-56
2022/10/07 07:36:15;;;;;;;;;;;7.00;99.90;;;;;;5087589;27;1220;-54
2022/10/07 07:38:57;;;;;;;;;;;7.10;99.90;;;;;;5088374;27;1199;-54
2022/10/07 07:41:37;;;;;;;;;;;7.20;99.90;;;;;;5089152;27;1719;-54
2022/10/07 07:44:17;;;;;;;;;;;7.40;99.90;;;;;;5089987;27;1409;-54
2022/10/07 07:46:58;;;;;;;;;;;7.60;99.90;;;;;;5088734;27;1378;-56
2022/10/07 07:49:37;;;;;;;;;;;7.70;99.90;;;;;;5108454;27;1213;-54
2022/10/07 07:52:17;;;;;;;;;;;7.80;99.90;;;;;;5109360;27;1599;-54
2022/10/07 07:54:58;;;;;;;;;;;7.90;99.90;;;;;;5110121;27;1418;-54
2022/10/07 07:57:38;;;;;;;;;;;8.10;99.90;;;;;;5098859;27;1643;-54
2022/10/07 08:00:21;;;;;;;;;;;8.20;99.90;;;;;;5083948;27;1746;-54
2022/10/07 08:03:12;;;;;;;;;;;8.40;99.90;;;;;;5108616;27;1320;-53
2022/10/07 08:05:50;;;;;;;;;;;8.70;99.90;;;;;;5107933;27;1240;-54
2022/10/07 08:08:28;;;;;;;;;;;9.00;99.90;;;;;;5109211;27;1341;-54
2022/10/07 08:11:09;;;;;;;;;;;9.20;99.90;;;;;;5083613;27;1367;-54
2022/10/07 08:13:48;;;;;;;;;;;9.40;99.90;;;;;;5082493;27;1835;-54
2022/10/07 08:16:29;;;;;;;;;;;9.70;99.90;;;;;;5103952;27;1634;-54
2022/10/07 08:19:11;;;;;;;;;;;10.20;99.90;;;;;;5096658;27;1489;-53
2022/10/07 08:21:51;;;;;;;;;;;10.60;99.90;;;;;;5067875;27;1404;-55
2022/10/07 08:24:34;;;;;;;;;;;11.00;99.90;;;;;;5088616;27;1382;-53
2022/10/07 08:27:12;;;;;;;;;;;11.20;99.90;;;;;;5086948;27;1172;-54
2022/10/07 08:29:50;;;;;;;;;;;11.40;99.90;;;;;;5087944;27;1249;-55
2022/10/07 08:32:29;;;;;;;;;;;11.60;99.90;;;;;;5108457;27;1664;-54
2022/10/07 08:35:09;;;;;;;;;;;11.80;99.90;;;;;;5087825;27;1379;-54
2022/10/07 08:37:47;;;;;;;;;;;11.80;99.90;;;;;;5087437;27;1210;-54
2022/10/07 08:40:25;;;;;;;;;;;12.10;99.90;;;;;;5087240;27;1411;-54
2022/10/07 08:43:03;;;;;;;;;;;12.40;99.90;;;;;;5108193;27;1221;-54
2022/10/07 08:45:42;;;;;;;;;;;12.80;99.90;;;;;;5104251;27;1685;-53
2022/10/07 08:48:28;;;;;;;;;;;13.10;99.90;;;;;;5108528;27;1501;-56
2022/10/07 08:51:12;;;;;;;;;;;13.40;99.90;;;;;;5104282;27;1913;-54
2022/10/07 08:53:52;;;;;;;;;;;13.60;99.90;;;;;;5109904;27;1334;-53
2022/10/07 08:56:32;;;;;;;;;;;13.90;99.90;;;;;;5068638;27;1240;-52
2022/10/07 08:59:16;;;;;;;;;;;14.30;99.90;;;;;;5104237;27;2154;-53
2022/10/07 09:02:02;;;;;;;;;;;14.60;99.90;;;;;;5098003;27;1497;-55
2022/10/07 09:04:45;;;;;;;;;;;14.90;99.90;;;;;;5107547;27;1383;-53
2022/10/07 09:07:30;;;;;;;;;;;15.10;99.90;;;;;;5087552;27;1872;-55
2022/10/07 09:10:17;;;;;;;;;;;15.30;99.90;;;;;;5084492;27;1950;-53
2022/10/07 09:12:59;;;;;;;;;;;15.50;99.90;;;;;;5088995;27;1250;-53
2022/10/07 09:15:42;;;;;;;;;;;15.60;99.90;;;;;;5096745;27;1515;-54
2022/10/07 09:18:22;;;;;;;;;;;15.80;99.90;;;;;;5107679;27;1904;-53
2022/10/07 09:21:03;;;;;;;;;;;16.10;99.90;;;;;;5107483;27;1951;-53
2022/10/07 09:23:43;;;;;;;;;;;16.50;99.90;;;;;;5108210;27;1285;-53
2022/10/07 09:26:22;;;;;;;;;;;16.50;99.90;;;;;;5107374;27;1343;-53
2022/10/07 09:29:00;;;;;;;;;;;16.70;99.90;;;;;;5108775;27;1488;-55
2022/10/07 09:31:39;;;;;;;;;;;16.90;99.90;;;;;;5095526;27;2084;-54
2022/10/07 09:34:22;;;;;;;;;;;17.20;99.90;;;;;;5108602;27;1693;-53
2022/10/07 09:37:13;;;;;;;;;;;17.40;99.90;;;;;;5099258;22;2043;-58
2022/10/07 09:39:53;;;;;;;;;;;17.50;99.90;;;;;;5107250;27;1599;-57
2022/10/07 09:42:35;;;;;;;;;;;17.60;99.90;;;;;;5107953;27;1467;-57
2022/10/07 09:45:21;;;;;;;;;;;17.60;99.90;;;;;;5107908;27;1227;-56
2022/10/07 09:48:05;;;;;;;;;;;17.80;99.90;;;;;;5113255;27;1387;-57
2022/10/07 09:50:45;;;;;;;;;;;18.00;99.90;;;;;;5107838;27;1393;-57
2022/10/07 09:53:28;;;;;;;;;;;18.00;99.90;;;;;;5108298;27;1303;-57
2022/10/07 09:56:27;;;;;;;;;;;17.80;99.90;;;;;;5083957;27;1587;-57
2022/10/07 09:59:17;;;;;;;;;;;17.90;99.90;;;;;;5104411;27;2093;-56
2022/10/07 10:01:57;;;;;;;;;;;17.60;99.90;;;;;;5108946;27;1622;-57
2022/10/07 10:04:36;;;;;;;;;;;17.40;99.90;;;;;;5094258;27;1395;-58
2022/10/07 10:07:19;;;;;;;;;;;17.20;99.90;;;;;;5105240;27;1635;-56
2022/10/07 10:09:58;;;;;;;;;;;17.10;99.90;;;;;;5067546;27;1528;-57
2022/10/07 10:12:45;;;;;;;;;;;16.90;99.90;;;;;;5106265;27;1570;-57
2022/10/07 10:15:28;;;;;;;;;;;16.80;99.90;;;;;;5083769;27;1612;-56
2022/10/07 10:18:19;;;;;;;;;;;16.90;99.90;;;;;;5093321;27;1658;-56
2022/10/07 10:21:13;;;;;;;;;;;17.00;99.90;;;;;;5108420;27;1320;-57
2022/10/07 10:23:54;;;;;;;;;;;17.30;99.90;;;;;;5109183;27;1372;-56
2022/10/07 10:26:48;;;;;;;;;;;17.50;99.90;;;;;;5088795;27;1364;-56
2022/10/07 10:29:34;;;;;;;;;;;17.70;99.90;;;;;;5104582;27;1614;-57
2022/10/07 10:32:35;;;;;;;;;;;18.00;99.90;;;;;;5088438;27;1617;-56
2022/10/07 10:35:18;;;;;;;;;;;18.30;99.90;;;;;;5088091;27;1935;-57
2022/10/07 10:38:03;;;;;;;;;;;18.80;99.90;;;;;;5089482;27;1263;-56
2022/10/07 10:40:42;;;;;;;;;;;19.00;99.90;;;;;;5109615;27;1192;-56
2022/10/07 10:43:25;;;;;;;;;;;19.20;99.90;;;;;;5109278;27;1427;-56
2022/10/07 10:46:12;;;;;;;;;;;19.70;99.90;;;;;;5104627;27;1868;-57
2022/10/07 10:48:53;;;;;;;;;;;20.00;99.90;;;;;;5106319;27;2016;-56
2022/10/07 10:51:41;;;;;;;;;;;20.30;99.90;;;;;;5067770;27;1301;-56
2022/10/07 10:54:25;;;;;;;;;;;20.30;99.90;;;;;;5109469;27;1404;-56
2022/10/07 10:57:10;;;;;;;;;;;20.10;99.90;;;;;;5099819;27;1627;-56
2022/10/07 10:59:58;;;;;;;;;;;20.00;99.90;;;;;;5105285;27;1721;-56
2022/10/07 11:02:58;;;;;;;;;;;19.90;99.90;;;;;;5087915;27;1585;-56
2022/10/07 11:05:37;;;;;;;;;;;20.10;99.90;;;;;;5108599;27;1299;-57
2022/10/07 11:08:17;;;;;;;;;;;20.40;99.90;;;;;;5087768;27;1635;-56
2022/10/07 11:10:57;;;;;;;;;;;20.70;99.90;;;;;;5069035;27;1217;-56
2022/10/07 11:13:40;;;;;;;;;;;20.80;99.90;;;;;;5106519;27;1764;-56
2022/10/07 11:16:21;;;;;;;;;;;20.80;99.90;;;;;;5098310;27;2131;-56
2022/10/07 11:19:01;;;;;;;;;;;20.90;99.90;;;;;;5084742;27;1732;-56
2022/10/07 11:21:41;;;;;;;;;;;20.80;99.90;;;;;;5108949;27;1612;-56
2022/10/07 11:24:23;;;;;;;;;;;20.50;99.90;;;;;;5108681;27;1369;-57
2022/10/07 11:27:04;;;;;;;;;;;20.50;99.90;;;;;;5105578;27;1429;-56
2022/10/07 11:29:47;;;;;;;;;;;20.60;99.90;;;;;;5109076;27;1305;-56
2022/10/07 11:32:28;;;;;;;;;;;20.90;99.90;;;;;;5104436;27;1645;-57
2022/10/07 11:35:16;;;;;;;;;;;21.30;99.90;;;;;;5109436;27;1383;-57
2022/10/07 11:38:00;;;;;;;;;;;21.40;99.90;;;;;;5089128;27;1236;-54
2022/10/07 11:40:42;;;;;;;;;;;21.30;99.90;;;;;;5066170;27;1705;-56
2022/10/07 11:43:24;;;;;;;;;;;21.40;99.90;;;;;;5108522;27;1435;-57
2022/10/07 11:46:04;;;;;;;;;;;21.60;99.90;;;;;;5087757;27;1747;-55
2022/10/07 11:48:48;;;;;;;;;;;21.80;99.90;;;;;;5088212;27;1261;-56
2022/10/07 11:51:28;;;;;;;;;;;22.00;99.90;;;;;;5068309;27;1431;-56
2022/10/07 11:54:07;;;;;;;;;;;22.00;99.90;;;;;;5089991;27;1391;-57
2022/10/07 11:56:48;;;;;;;;;;;22.10;99.90;;;;;;5107474;27;1583;-56
2022/10/07 11:59:32;;;;;;;;;;;21.90;99.90;;;;;;5109261;27;1233;-56
2022/10/07 12:02:25;;;;;;;;;;;21.90;99.90;;;;;;5110706;27;1384;-56
2022/10/07 12:05:03;;;;;;;;;;;21.90;99.90;;;;;;5109282;27;1463;-57
2022/10/07 12:07:59;;;;;;;;;;;21.80;99.90;;;;;;5065444;27;1340;-56
2022/10/07 12:10:39;;;;;;;;;;;21.80;99.90;;;;;;5083951;27;1596;-57
2022/10/07 12:13:38;;;;;;;;;;;21.80;99.90;;;;;;5089382;27;1495;-57
2022/10/07 12:16:50;;;;;;;;;;;21.70;99.90;;;;;;5106031;27;1877;-56
2022/10/07 12:19:32;;;;;;;;;;;21.50;99.90;;;;;;5083133;27;1624;-56
2022/10/07 12:22:20;;;;;;;;;;;21.40;99.90;;;;;;5067848;27;1675;-56
2022/10/07 12:25:19;;;;;;;;;;;21.20;99.90;;;;;;5108494;27;1565;-56
2022/10/07 12:27:58;;;;;;;;;;;21.00;99.90;;;;;;5068935;27;1679;-56
2022/10/07 12:30:41;;;;;;;;;;;20.90;99.90;;;;;;5103347;27;1485;-57
2022/10/07 12:33:28;;;;;;;;;;;20.60;99.90;;;;;;5108706;27;2028;-56
2022/10/07 12:36:20;;;;;;;;;;;20.50;99.90;;;;;;5067578;27;1715;-57
2022/10/07 12:39:17;;;;;;;;;;;20.40;99.90;;;;;;5109225;27;1587;-57
2022/10/07 12:41:57;;;;;;;;;;;20.50;99.90;;;;;;5106544;27;1722;-56
2022/10/07 12:44:37;;;;;;;;;;;20.50;99.90;;;;;;5109523;27;1178;-57
2022/10/07 12:47:19;;;;;;;;;;;20.60;99.90;;;;;;5067182;27;1662;-56
2022/10/07 12:50:00;;;;;;;;;;;20.60;99.90;;;;;;5083543;27;1621;-56
2022/10/07 12:52:42;;;;;;;;;;;20.60;99.90;;;;;;5109248;27;1197;-56
2022/10/07 12:55:22;;;;;;;;;;;20.70;99.90;;;;;;5109289;27;1443;-57
2022/10/07 13:01:03;;;;;;;;;;;20.50;99.90;;;;;;5059233;27;1619;-57
2022/10/07 13:03:56;;;;;;;;;;;20.50;99.90;;;;;;5107098;27;1435;-57
2022/10/07 13:07:06;;;;;;;;;;;20.70;99.90;;;;;;5086860;27;1413;-56
2022/10/07 13:10:07;;;;;;;;;;;20.70;99.90;;;;;;5087767;27;1631;-56
2022/10/07 13:12:50;;;;;;;;;;;20.70;99.90;;;;;;5108770;27;1404;-56
2022/10/07 13:15:34;;;;;;;;;;;20.90;99.90;;;;;;5107457;27;1284;-57
2022/10/07 13:18:16;;;;;;;;;;;20.70;99.90;;;;;;5108854;27;1422;-57
2022/10/07 13:21:02;;;;;;;;;;;20.80;99.90;;;;;;5109203;27;1319;-57
2022/10/07 13:23:40;;;;;;;;;;;21.00;99.90;;;;;;5106948;27;1638;-56
2022/10/07 13:26:19;;;;;;;;;;;21.00;99.90;;;;;;5105520;27;1605;-56
2022/10/07 13:28:59;;;;;;;;;;;21.00;99.90;;;;;;5108979;27;1650;-56
2022/10/07 13:31:38;;;;;;;;;;;20.90;99.90;;;;;;5087704;27;1305;-57
2022/10/07 13:34:17;;;;;;;;;;;20.90;99.90;;;;;;5089292;27;1389;-56
2022/10/07 13:36:56;;;;;;;;;;;21.10;99.90;;;;;;5109313;27;1294;-57
2022/10/07 13:39:34;;;;;;;;;;;21.10;99.90;;;;;;5108984;27;1202;-58
2022/10/07 13:42:13;;;;;;;;;;;21.00;99.90;;;;;;5109329;27;1397;-57
2022/10/07 13:44:53;;;;;;;;;;;20.90;99.90;;;;;;5109507;27;1450;-58
2022/10/07 13:47:35;;;;;;;;;;;20.80;99.90;;;;;;5091246;27;1367;-57
2022/10/07 13:50:17;;;;;;;;;;;20.80;99.90;;;;;;5105109;27;1593;-56
2022/10/07 13:52:56;;;;;;;;;;;20.80;99.90;;;;;;5109119;27;1513;-57
2022/10/07 13:55:35;;;;;;;;;;;20.70;99.90;;;;;;5114133;27;1377;-57
2022/10/07 13:58:15;;;;;;;;;;;20.60;99.90;;;;;;5108803;27;1398;-56
2022/10/07 14:00:55;;;;;;;;;;;20.60;99.90;;;;;;5086990;27;1288;-57
2022/10/07 14:03:33;;;;;;;;;;;20.50;99.90;;;;;;5108676;27;1312;-56
2022/10/07 14:06:25;;;;;;;;;;;20.50;99.90;;;;;;5061772;27;1331;-56
2022/10/07 14:09:03;;;;;;;;;;;20.50;99.90;;;;;;5108911;27;1326;-55
2022/10/07 14:11:42;;;;;;;;;;;20.30;99.90;;;;;;5109957;27;1208;-56
2022/10/07 14:14:23;;;;;;;;;;;20.10;99.90;;;;;;5089328;27;1332;-58
2022/10/07 14:17:08;;;;;;;;;;;20.10;99.90;;;;;;5106335;27;1387;-57
2022/10/07 14:19:50;;;;;;;;;;;20.20;99.90;;;;;;5083605;27;1719;-56
2022/10/07 14:22:31;;;;;;;;;;;20.20;99.90;;;;;;5108959;27;1731;-57
2022/10/07 14:25:17;;;;;;;;;;;20.00;99.90;;;;;;5089864;27;1300;-57
2022/10/07 14:28:04;;;;;;;;;;;20.00;99.90;;;;;;5107168;27;1402;-57
2022/10/07 14:37:00;;;;;;;;;;;20.00;99.90;;;;;;5098125;27;1304;-57
2022/10/07 14:39:39;;;;;;;;;;;19.80;99.90;;;;;;5103978;27;1617;-57
2022/10/07 14:42:21;;;;;;;;;;;19.70;99.90;;;;;;5087944;27;1403;-56
2022/10/07 14:45:01;;;;;;;;;;;19.60;99.90;;;;;;5108290;27;1733;-56
2022/10/07 14:47:48;;;;;;;;;;;19.40;99.90;;;;;;5069195;27;1645;-57
2022/10/07 14:50:28;;;;;;;;;;;19.40;99.90;;;;;;5109077;27;1338;-57
2022/10/07 14:53:11;;;;;;;;;;;19.30;99.90;;;;;;5109598;27;1281;-57
2022/10/07 14:55:50;;;;;;;;;;;19.10;99.90;;;;;;5105179;27;1741;-57
2022/10/07 14:58:29;;;;;;;;;;;18.80;99.90;;;;;;5088946;27;1214;-58
2022/10/07 15:01:08;;;;;;;;;;;18.50;99.90;;;;;;5087026;27;1511;-57
2022/10/07 15:03:47;;;;;;;;;;;18.30;99.90;;;;;;5109437;27;1718;-56
2022/10/07 15:06:28;;;;;;;;;;;18.10;99.90;;;;;;5100854;27;1873;-57
2022/10/07 15:09:06;;;;;;;;;;;17.90;99.90;;;;;;5088431;27;2837;-57
2022/10/07 15:11:44;;;;;;;;;;;17.70;99.90;;;;;;5110376;27;1578;-56
2022/10/07 15:14:22;;;;;;;;;;;17.50;99.90;;;;;;5089323;27;1585;-57
2022/10/07 15:17:01;;;;;;;;;;;17.20;99.90;;;;;;5110504;27;1571;-55
2022/10/07 15:19:39;;;;;;;;;;;17.00;99.90;;;;;;5106627;27;1664;-57
2022/10/07 15:22:19;;;;;;;;;;;16.80;99.90;;;;;;5109941;27;1550;-56
2022/10/07 15:24:57;;;;;;;;;;;16.70;99.90;;;;;;5110225;27;1550;-57
2022/10/07 15:27:36;;;;;;;;;;;16.50;99.90;;;;;;5091487;27;1304;-57
2022/10/07 15:30:15;;;;;;;;;;;16.30;99.90;;;;;;5108724;27;1581;-57
2022/10/07 15:32:55;;;;;;;;;;;16.20;99.90;;;;;;5110654;27;1695;-57
2022/10/07 15:35:34;;;;;;;;;;;16.00;99.90;;;;;;5109011;27;1393;-57
2022/10/07 15:38:13;;;;;;;;;;;15.90;99.90;;;;;;5110896;27;1732;-56
2022/10/07 15:40:53;;;;;;;;;;;15.70;99.90;;;;;;5104289;27;1754;-56
2022/10/07 15:43:32;;;;;;;;;;;15.60;99.90;;;;;;5069214;27;1218;-56
2022/10/07 15:46:11;;;;;;;;;;;15.40;99.90;;;;;;5103801;27;1362;-55
2022/10/07 15:48:53;;;;;;;;;;;15.20;99.90;;;;;;5089461;27;1420;-56
2022/10/07 15:51:34;;;;;;;;;;;15.00;99.90;;;;;;5110477;27;1300;-56
2022/10/07 15:54:14;;;;;;;;;;;14.80;99.90;;;;;;5126412;27;1305;-56
2022/10/07 15:56:52;;;;;;;;;;;14.60;99.90;;;;;;5103747;27;1798;-56
2022/10/07 15:59:32;;;;;;;;;;;14.30;99.90;;;;;;5105236;27;1630;-56
2022/10/07 16:02:13;;;;;;;;;;;14.20;99.90;;;;;;5109415;27;1221;-56
2022/10/07 16:04:51;;;;;;;;;;;13.90;99.90;;;;;;5110534;27;1711;-56
2022/10/07 16:07:29;;;;;;;;;;;13.70;99.90;;;;;;5050697;27;1584;-56
2022/10/07 16:10:09;;;;;;;;;;;13.50;99.90;;;;;;5109507;27;1239;-56
2022/10/07 16:12:47;;;;;;;;;;;13.30;99.90;;;;;;5109723;27;1402;-56
2022/10/07 16:15:26;;;;;;;;;;;13.10;99.90;;;;;;5109651;27;1395;-56